Time;durP1;ratioP1;P1;durP2;ratioP2;P2;SDS_P1;SDS_P2;PMS_P1;PMS_P2;Temp;Humidity;BMP_temperature;BMP_pressure;BME280_temperature;BME280_humidity;BME280_pressure;Samples;Min_cycle;Max_cycle;Signal;HPM_P1;HPM_P2
2022/03/04 00:00:45;;;;;;;7.57;2.25;;;25.20;99.90;;;;;;5094775;28;20017;-72
2022/03/04 00:03:12;;;;;;;8.48;1.45;;;25.30;99.90;;;;;;5094876;28;20388;-72
2022/03/04 00:05:41;;;;;;;7.20;1.77;;;25.30;99.90;;;;;;5095042;28;20058;-71
2022/03/04 00:08:09;;;;;;;9.90;1.77;;;25.30;99.90;;;;;;5094282;28;20019;-72
2022/03/04 00:10:37;;;;;;;10.30;1.92;;;25.20;99.90;;;;;;5094436;28;20077;-72
2022/03/04 00:13:05;;;;;;;5.07;0.95;;;25.20;99.90;;;;;;5094275;28;20434;-71
2022/03/04 00:15:34;;;;;;;9.25;1.58;;;25.10;99.90;;;;;;5094308;28;20032;-71
2022/03/04 00:18:01;;;;;;;10.18;3.15;;;25.10;99.90;;;;;;5094512;28;20025;-71
2022/03/04 00:20:29;;;;;;;12.48;2.05;;;25.10;99.90;;;;;;5093860;28;20062;-73
2022/03/04 00:22:56;;;;;;;5.15;0.80;;;25.20;99.90;;;;;;5093945;28;20027;-71
2022/03/04 00:25:24;;;;;;;8.77;1.38;;;25.10;99.90;;;;;;5093854;28;20017;-73
2022/03/04 00:27:51;;;;;;;6.18;1.05;;;25.10;99.90;;;;;;5094231;28;20021;-71
2022/03/04 00:30:19;;;;;;;9.50;1.10;;;25.10;99.90;;;;;;5094165;28;20017;-72
2022/03/04 00:32:47;;;;;;;12.68;1.38;;;25.10;99.90;;;;;;5093182;28;20377;-72
2022/03/04 00:35:14;;;;;;;7.05;0.85;;;25.10;99.90;;;;;;5093985;28;20083;-72
2022/03/04 00:37:41;;;;;;;10.00;1.67;;;25.10;99.90;;;;;;5094029;28;20381;-73
2022/03/04 00:40:10;;;;;;;6.57;0.88;;;25.00;99.90;;;;;;5093982;28;20023;-72
2022/03/04 00:42:37;;;;;;;8.38;1.50;;;25.00;99.90;;;;;;5093770;28;20024;-72
2022/03/04 00:45:06;;;;;;;8.95;1.48;;;25.10;99.90;;;;;;5093737;28;20016;-73
2022/03/04 00:47:33;;;;;;;6.53;1.85;;;25.00;99.90;;;;;;5094072;28;20027;-72
2022/03/04 00:50:01;;;;;;;9.73;1.48;;;25.00;99.90;;;;;;5093890;28;20058;-73
2022/03/04 00:52:29;;;;;;;5.22;1.52;;;24.90;99.90;;;;;;5093840;28;20541;-72
2022/03/04 00:54:57;;;;;;;7.18;1.23;;;24.90;99.90;;;;;;5092291;28;20480;-72
2022/03/04 00:57:24;;;;;;;9.43;1.55;;;24.80;99.90;;;;;;5093467;28;20110;-72
2022/03/04 00:59:51;;;;;;;9.85;2.58;;;24.80;99.90;;;;;;5093578;28;20052;-73
2022/03/04 01:02:19;;;;;;;7.47;2.08;;;25.00;99.90;;;;;;5093387;28;20027;-72
2022/03/04 01:04:46;;;;;;;8.75;1.55;;;25.10;99.90;;;;;;5093449;28;20418;-73
2022/03/04 01:07:13;;;;;;;6.60;1.30;;;25.20;99.90;;;;;;5093558;28;20020;-72
2022/03/04 01:09:42;;;;;;;8.48;1.55;;;25.30;99.90;;;;;;5093373;28;20054;-74
2022/03/04 01:12:09;;;;;;;4.35;1.13;;;25.30;99.90;;;;;;5093980;28;20020;-74
2022/03/04 01:14:37;;;;;;;8.13;0.82;;;25.40;99.90;;;;;;5092959;28;20024;-74
2022/03/04 01:17:04;;;;;;;8.00;1.35;;;25.50;99.90;;;;;;5093184;28;20212;-75
2022/03/04 01:19:31;;;;;;;13.82;2.42;;;25.50;99.90;;;;;;5093524;28;20388;-75
2022/03/04 01:21:59;;;;;;;15.20;1.60;;;25.60;99.90;;;;;;5093452;28;20020;-74
2022/03/04 01:24:26;;;;;;;11.82;2.13;;;25.50;99.90;;;;;;5092937;28;20020;-74
2022/03/04 01:26:53;;;;;;;6.65;1.60;;;25.50;99.90;;;;;;5092934;28;20090;-73
2022/03/04 01:29:20;;;;;;;4.50;1.50;;;25.30;99.90;;;;;;5093048;28;20020;-75
2022/03/04 01:31:48;;;;;;;7.38;1.33;;;25.20;99.90;;;;;;5092907;28;20043;-75
2022/03/04 01:34:15;;;;;;;6.43;1.50;;;25.20;99.90;;;;;;5092614;28;20048;-72
2022/03/04 01:36:42;;;;;;;5.80;1.58;;;25.30;99.90;;;;;;5092762;28;20036;-74
2022/03/04 01:39:10;;;;;;;4.93;1.10;;;25.50;99.90;;;;;;5092846;28;20044;-75
2022/03/04 01:41:37;;;;;;;6.03;1.23;;;25.80;99.90;;;;;;5091528;28;20076;-74
2022/03/04 01:44:04;;;;;;;5.07;1.08;;;25.90;99.90;;;;;;5092689;28;20032;-73
2022/03/04 01:46:32;;;;;;;7.85;0.98;;;26.00;99.90;;;;;;5092514;28;20026;-72
2022/03/04 01:48:59;;;;;;;7.88;1.10;;;26.20;99.90;;;;;;5090968;28;20012;-72
2022/03/04 01:51:27;;;;;;;7.80;1.10;;;26.30;99.90;;;;;;5092157;28;20052;-72
2022/03/04 01:53:54;;;;;;;9.13;2.78;;;26.30;99.90;;;;;;5092666;28;20105;-73
2022/03/04 01:56:24;;;;;;;6.22;1.90;;;26.50;99.90;;;;;;5092515;28;20061;-72
2022/03/04 01:58:52;;;;;;;6.82;1.80;;;26.50;99.90;;;;;;5092716;28;20035;-72
2022/03/04 02:01:19;;;;;;;5.50;1.02;;;26.40;99.90;;;;;;5092889;28;20103;-73
2022/03/04 02:03:47;;;;;;;9.50;1.38;;;26.40;99.90;;;;;;5092411;28;20016;-72
2022/03/04 02:06:14;;;;;;;9.65;1.35;;;26.40;99.90;;;;;;5092328;28;20020;-72
2022/03/04 02:08:42;;;;;;;6.22;1.55;;;26.30;99.90;;;;;;5092007;28;20016;-72
2022/03/04 02:11:09;;;;;;;8.38;1.88;;;26.30;99.90;;;;;;5092382;28;20024;-72
2022/03/04 02:13:40;;;;;;;14.73;2.17;;;26.60;99.90;;;;;;5092489;28;20081;-73
2022/03/04 02:16:18;;;;;;;10.10;1.83;;;26.70;99.90;;;;;;5092503;28;20073;-74
2022/03/04 02:18:46;;;;;;;7.72;1.77;;;26.80;99.90;;;;;;5092374;28;20020;-76
2022/03/04 02:21:14;;;;;;;6.97;1.55;;;26.80;99.90;;;;;;5092041;28;20085;-73
2022/03/04 02:23:42;;;;;;;8.52;1.20;;;26.70;99.90;;;;;;5089195;28;20414;-75
2022/03/04 02:26:09;;;;;;;8.07;1.80;;;26.60;99.90;;;;;;5071528;28;20085;-75
2022/03/04 02:28:37;;;;;;;11.88;1.92;;;26.70;99.90;;;;;;5070680;28;20032;-74
2022/03/04 02:31:04;;;;;;;4.65;0.68;;;26.80;99.90;;;;;;5069679;28;20027;-73
2022/03/04 02:33:32;;;;;;;3.92;0.60;;;27.00;99.90;;;;;;5069793;28;20025;-73
2022/03/04 02:36:00;;;;;;;5.28;0.68;;;26.90;99.90;;;;;;5085268;28;20079;-76
2022/03/04 02:38:27;;;;;;;8.10;0.73;;;26.80;99.90;;;;;;5069649;28;20031;-74
2022/03/04 02:40:54;;;;;;;8.20;1.65;;;26.60;99.90;;;;;;5051919;28;20078;-74
2022/03/04 02:43:22;;;;;;;7.55;1.20;;;26.40;99.90;;;;;;5070921;28;20108;-72
2022/03/04 02:45:51;;;;;;;6.63;1.27;;;26.30;99.90;;;;;;5071798;28;20025;-73
2022/03/04 02:48:18;;;;;;;12.02;2.00;;;26.20;99.90;;;;;;5071936;28;20042;-72
2022/03/04 02:50:46;;;;;;;9.18;1.80;;;26.20;99.90;;;;;;5071856;28;20029;-73
2022/03/04 02:53:16;;;;;;;8.90;1.85;;;26.50;99.90;;;;;;5071490;28;20532;-74
2022/03/04 02:55:43;;;;;;;8.18;2.05;;;26.70;99.90;;;;;;5071211;28;20032;-72
2022/03/04 02:58:11;;;;;;;7.28;0.90;;;27.00;99.90;;;;;;5053549;28;20025;-76
2022/03/04 03:00:38;;;;;;;6.50;1.42;;;27.50;99.90;;;;;;5071715;28;20499;-73
2022/03/04 03:03:05;;;;;;;5.03;1.00;;;28.10;99.90;;;;;;5071422;28;20031;-73
2022/03/04 03:05:33;;;;;;;7.82;2.05;;;28.70;99.90;;;;;;5071206;28;20066;-74
2022/03/04 03:08:00;;;;;;;9.00;1.23;;;29.10;99.90;;;;;;5071094;28;20020;-74
2022/03/04 03:10:27;;;;;;;11.00;1.33;;;29.50;99.90;;;;;;5071196;28;20103;-73
2022/03/04 03:12:55;;;;;;;2.40;0.55;;;29.40;99.90;;;;;;5071163;28;20369;-73
2022/03/04 03:15:22;;;;;;;3.58;0.80;;;28.90;99.90;;;;;;5071450;28;20021;-74
2022/03/04 03:17:49;;;;;;;3.95;0.70;;;28.30;99.90;;;;;;5071201;28;20117;-72
2022/03/04 03:20:16;;;;;;;3.80;0.85;;;27.60;99.90;;;;;;5071453;28;20091;-74
2022/03/04 03:22:44;;;;;;;2.50;0.82;;;27.10;99.90;;;;;;5053619;28;20135;-74
2022/03/04 03:25:12;;;;;;;7.55;0.80;;;26.90;99.90;;;;;;5071525;28;20017;-73
2022/03/04 03:27:39;;;;;;;6.45;1.17;;;27.20;99.90;;;;;;5071194;28;20028;-74
2022/03/04 03:30:08;;;;;;;5.10;1.52;;;27.60;99.90;;;;;;5070869;28;20369;-72
2022/03/04 03:32:36;;;;;;;6.53;1.05;;;28.20;99.90;;;;;;5070972;28;20021;-74
2022/03/04 03:35:03;;;;;;;6.10;1.70;;;28.60;99.90;;;;;;5071051;28;20130;-77
2022/03/04 03:37:31;;;;;;;7.63;1.48;;;29.10;99.90;;;;;;5069706;28;20039;-71
2022/03/04 03:39:58;;;;;;;8.73;1.48;;;29.70;99.90;;;;;;5070797;28;20021;-71
2022/03/04 03:42:25;;;;;;;6.60;1.40;;;29.90;99.90;;;;;;5053261;28;20500;-78
2022/03/04 03:44:52;;;;;;;7.15;1.50;;;29.90;99.90;;;;;;5070923;28;20830;-74
2022/03/04 03:47:20;;;;;;;10.60;1.58;;;29.70;99.90;;;;;;5071052;28;20062;-73
2022/03/04 03:49:47;;;;;;;5.88;1.35;;;29.50;99.90;;;;;;5070925;28;20032;-74
2022/03/04 03:52:15;;;;;;;6.38;1.17;;;29.10;99.90;;;;;;5071101;28;20366;-74
2022/03/04 03:54:42;;;;;;;4.82;1.50;;;28.90;99.90;;;;;;5071256;28;20016;-74
2022/03/04 03:57:10;;;;;;;5.95;0.98;;;28.70;99.90;;;;;;5074240;28;20028;-75
2022/03/04 03:59:38;;;;;;;8.45;1.30;;;28.40;99.90;;;;;;5056221;28;20415;-73
2022/03/04 04:02:05;;;;;;;3.20;0.73;;;28.60;99.90;;;;;;5074356;28;20400;-74
2022/03/04 04:04:35;;;;;;;3.95;1.13;;;28.70;99.90;;;;;;5074366;28;20021;-74
2022/03/04 04:07:07;;;;;;;7.97;2.05;;;28.60;99.90;;;;;;5074079;28;20034;-74
2022/03/04 04:09:34;;;;;;;7.97;1.48;;;28.50;99.90;;;;;;5073619;28;20024;-73
2022/03/04 04:12:02;;;;;;;9.73;2.05;;;28.20;99.90;;;;;;5074093;28;20094;-74
2022/03/04 04:14:30;;;;;;;8.27;1.70;;;27.80;99.90;;;;;;5074208;28;20024;-73
2022/03/04 04:16:58;;;;;;;7.75;2.67;;;27.70;99.90;;;;;;5074232;28;20029;-74
2022/03/04 04:19:25;;;;;;;8.18;2.13;;;27.90;99.90;;;;;;5074109;28;20078;-73
2022/03/04 04:21:53;;;;;;;4.00;1.10;;;28.50;99.90;;;;;;5073669;28;20028;-73
2022/03/04 04:24:21;;;;;;;8.38;1.23;;;29.00;99.90;;;;;;5073204;28;20175;-73
2022/03/04 04:26:49;;;;;;;7.53;1.20;;;29.50;99.90;;;;;;5073262;28;20078;-74
2022/03/04 04:29:16;;;;;;;9.07;1.65;;;30.40;99.90;;;;;;5073251;28;20051;-75
2022/03/04 04:31:43;;;;;;;7.78;1.33;;;31.40;99.90;;;;;;5074026;28;20484;-73
2022/03/04 04:34:11;;;;;;;5.15;0.95;;;32.30;99.90;;;;;;5073777;28;20131;-74
2022/03/04 04:36:38;;;;;;;6.00;1.70;;;32.60;99.90;;;;;;5056166;28;20071;-73
2022/03/04 04:39:05;;;;;;;4.60;0.90;;;31.80;99.90;;;;;;5073846;28;20029;-74
2022/03/04 04:41:34;;;;;;;3.35;0.47;;;31.20;99.90;;;;;;5073894;28;20035;-72
2022/03/04 04:44:02;;;;;;;4.43;0.80;;;30.60;99.90;;;;;;5073485;28;20467;-74
2022/03/04 04:46:29;;;;;;;5.38;1.10;;;29.90;99.90;;;;;;5068916;28;20456;-74
2022/03/04 04:48:57;;;;;;;5.50;1.00;;;29.70;99.90;;;;;;5090571;28;20020;-73
2022/03/04 04:51:24;;;;;;;10.30;1.60;;;29.60;99.90;;;;;;5089187;28;20016;-73
2022/03/04 04:53:52;;;;;;;6.05;1.88;;;29.60;99.90;;;;;;5093183;28;20423;-72
2022/03/04 04:56:20;;;;;;;9.38;1.40;;;29.80;99.90;;;;;;5092703;28;20522;-73
2022/03/04 04:58:48;;;;;;;6.20;0.80;;;29.80;99.90;;;;;;5093210;28;20020;-74
2022/03/04 05:01:15;;;;;;;12.38;1.50;;;30.10;99.90;;;;;;5092841;28;20066;-72
2022/03/04 05:03:43;;;;;;;12.82;2.28;;;30.10;99.90;;;;;;5093167;28;20021;-73
2022/03/04 05:06:11;;;;;;;10.27;2.30;;;29.60;99.90;;;;;;5091098;28;20433;-73
2022/03/04 05:08:38;;;;;;;8.90;1.63;;;29.30;99.90;;;;;;5093011;28;20036;-74
2022/03/04 05:11:05;;;;;;;8.45;1.67;;;29.20;99.90;;;;;;5092855;28;20020;-72
2022/03/04 05:13:34;;;;;;;9.70;1.95;;;29.80;99.90;;;;;;5078017;28;20033;-74
2022/03/04 05:16:01;;;;;;;9.60;1.58;;;30.50;99.90;;;;;;5072596;28;20057;-74
2022/03/04 05:18:28;;;;;;;12.48;2.17;;;30.70;99.90;;;;;;5091928;28;20031;-72
2022/03/04 05:20:55;;;;;;;12.85;1.77;;;30.50;99.90;;;;;;5092572;28;20472;-73
2022/03/04 05:26:08;;;;;;;11.57;1.33;;;29.40;99.90;;;;;;5092421;28;20039;-73
2022/03/04 05:28:35;;;;;;;13.05;2.35;;;29.60;99.90;;;;;;5080263;28;20035;-74
2022/03/04 05:31:03;;;;;;;7.38;1.27;;;30.30;99.90;;;;;;5091961;28;20020;-74
2022/03/04 05:33:30;;;;;;;12.55;3.50;;;30.70;99.90;;;;;;5092267;28;20048;-73
2022/03/04 05:35:58;;;;;;;10.18;3.08;;;31.50;99.90;;;;;;5092068;28;20392;-73
2022/03/04 05:38:26;;;;;;;10.95;2.90;;;32.10;99.90;;;;;;5091509;28;20481;-73
2022/03/04 05:40:54;;;;;;;13.18;2.90;;;32.50;99.90;;;;;;5091369;28;20464;-73
2022/03/04 05:43:21;;;;;;;5.63;2.53;;;32.30;99.90;;;;;;5091871;28;20020;-73
2022/03/04 05:45:49;;;;;;;6.70;1.65;;;32.00;99.90;;;;;;5092099;28;20095;-76
2022/03/04 05:48:16;;;;;;;8.90;2.15;;;31.50;99.90;;;;;;5091468;28;20089;-74
2022/03/04 05:50:44;;;;;;;10.23;1.90;;;31.10;99.90;;;;;;5091680;28;20016;-73
2022/03/04 05:53:11;;;;;;;9.68;2.25;;;30.90;99.90;;;;;;5091653;28;20069;-72
2022/03/04 05:55:38;;;;;;;10.50;2.00;;;31.30;99.90;;;;;;5091112;28;20024;-73
2022/03/04 05:58:06;;;;;;;10.38;2.15;;;31.50;99.90;;;;;;5089842;28;20594;-75
2022/03/04 06:00:33;;;;;;;11.57;2.05;;;32.20;99.90;;;;;;5084720;28;20020;-72
2022/03/04 06:03:01;;;;;;;8.77;1.95;;;32.90;99.90;;;;;;5089150;28;20020;-74
2022/03/04 06:05:29;;;;;;;7.63;1.92;;;33.40;99.60;;;;;;5091505;28;20058;-74
2022/03/04 06:07:57;;;;;;;7.78;2.90;;;33.70;98.60;;;;;;5073099;28;20032;-74
2022/03/04 06:10:24;;;;;;;8.15;2.33;;;34.20;98.50;;;;;;5091236;28;20012;-74
2022/03/04 06:12:52;;;;;;;9.45;2.13;;;34.60;98.30;;;;;;5082809;28;20051;-73
2022/03/04 06:15:19;;;;;;;10.45;3.00;;;34.50;99.10;;;;;;5071106;28;20052;-73
2022/03/04 06:17:51;;;;;;;6.90;1.58;;;34.00;99.20;;;;;;5070800;28;20446;-73
2022/03/04 06:20:20;;;;;;;;;;;33.40;99.90;;;;;;5094854;28;20023;-74
2022/03/04 06:22:51;;;;;;;8.52;1.65;;;32.70;99.90;;;;;;5091393;28;19908;-73
2022/03/04 06:25:20;;;;;;;7.07;1.27;;;31.80;99.90;;;;;;5091063;28;20052;-75
2022/03/04 06:28:13;;;;;;;6.43;1.80;;;30.70;99.90;;;;;;5091632;28;20031;-72
2022/03/04 06:30:42;;;;;;;7.20;2.28;;;29.90;99.90;;;;;;5085898;28;20032;-74
2022/03/04 06:35:55;;;;;;;9.90;2.10;;;28.60;99.90;;;;;;5090842;28;20105;-74
2022/03/04 06:38:32;;;;;;;9.02;1.77;;;28.00;99.90;;;;;;5090999;28;20421;-75
2022/03/04 06:41:00;;;;;;;9.02;1.80;;;27.60;99.90;;;;;;5090977;28;20103;-74
2022/03/04 06:43:28;;;;;;;9.95;3.28;;;27.30;99.90;;;;;;5091075;28;20078;-73
2022/03/04 06:45:55;;;;;;;11.45;3.72;;;27.00;99.90;;;;;;5090410;28;20023;-73
2022/03/04 06:48:22;;;;;;;11.35;3.50;;;26.70;99.90;;;;;;5091351;28;20067;-72
2022/03/04 06:50:51;;;;;;;10.05;2.13;;;26.60;99.90;;;;;;5091213;28;20024;-72
2022/03/04 06:53:18;;;;;;;9.68;2.10;;;26.50;99.90;;;;;;5090924;28;20073;-74
2022/03/04 06:55:47;;;;;;;8.63;2.75;;;26.40;99.90;;;;;;5091040;28;20063;-73
2022/03/04 06:58:15;;;;;;;12.23;4.57;;;26.30;99.90;;;;;;5088531;28;20103;-73
2022/03/04 07:00:42;;;;;;;10.20;2.83;;;26.40;99.90;;;;;;5089922;28;20066;-77
2022/03/04 07:03:10;;;;;;;10.95;4.03;;;26.50;99.90;;;;;;5090000;28;20365;-74
2022/03/04 07:05:39;;;;;;;7.57;2.15;;;26.40;99.90;;;;;;5091974;28;20020;-72
2022/03/04 07:08:11;;;;;;;8.00;1.90;;;26.30;99.90;;;;;;5091736;28;20077;-72
2022/03/04 07:10:39;;;;;;;10.25;2.30;;;26.00;99.90;;;;;;5091100;28;20047;-73
2022/03/04 07:13:07;;;;;;;9.07;2.88;;;25.80;99.90;;;;;;5091882;28;20613;-74
2022/03/04 07:15:35;;;;;;;12.52;4.80;;;25.70;99.90;;;;;;5091775;28;20028;-73
2022/03/04 07:18:03;;;;;;;9.30;3.47;;;25.50;99.90;;;;;;5092036;28;20421;-72
2022/03/04 07:20:30;;;;;;;11.07;4.05;;;25.40;99.90;;;;;;5091843;28;20023;-74
2022/03/04 07:22:58;;;;;;;11.00;5.80;;;25.30;99.90;;;;;;5091781;28;20028;-74
2022/03/04 07:25:25;;;;;;;9.52;4.15;;;25.20;99.90;;;;;;5092042;28;20020;-71
2022/03/04 07:27:52;;;;;;;16.63;5.95;;;25.10;99.90;;;;;;5092278;28;20099;-72
2022/03/04 07:30:20;;;;;;;16.40;3.67;;;25.10;99.90;;;;;;5095612;28;20020;-71
2022/03/04 07:32:49;;;;;;;13.50;3.60;;;25.10;99.90;;;;;;5095924;28;20016;-73
2022/03/04 07:35:17;;;;;;;14.27;5.30;;;25.00;99.90;;;;;;5095780;28;20131;-74
2022/03/04 07:37:45;;;;;;;12.90;3.30;;;25.00;99.90;;;;;;5095727;28;20041;-72
2022/03/04 07:40:15;;;;;;;12.05;3.03;;;25.00;99.90;;;;;;5095424;28;20031;-71
2022/03/04 07:42:43;;;;;;;13.68;4.22;;;24.90;99.90;;;;;;5095441;28;20429;-72
2022/03/04 07:45:11;;;;;;;11.48;3.42;;;24.90;99.90;;;;;;5095283;28;20107;-72
2022/03/04 07:47:41;;;;;;;12.02;2.90;;;24.80;99.90;;;;;;5095109;28;20028;-72
2022/03/04 07:50:15;;;;;;;12.68;3.72;;;24.80;99.90;;;;;;5094721;28;20020;-72
2022/03/04 07:52:43;;;;;;;14.68;5.28;;;24.70;99.90;;;;;;5094881;28;20092;-72
2022/03/04 07:55:13;;;;;;;17.58;5.65;;;24.70;99.90;;;;;;5095006;28;20012;-73
2022/03/04 07:57:41;;;;;;;13.68;4.35;;;24.70;99.90;;;;;;5094764;28;20128;-72
2022/03/04 08:00:11;;;;;;;15.48;4.85;;;24.60;99.90;;;;;;5095142;28;20024;-72
2022/03/04 08:02:39;;;;;;;18.05;7.93;;;24.60;99.90;;;;;;5095272;28;20503;-71
2022/03/04 08:05:09;;;;;;;21.13;4.80;;;24.50;99.90;;;;;;5095115;28;20090;-72
2022/03/04 08:07:37;;;;;;;14.32;5.07;;;24.50;99.90;;;;;;5094725;28;20142;-71
2022/03/04 08:10:07;;;;;;;16.33;4.55;;;24.50;99.90;;;;;;5093961;28;20114;-72
2022/03/04 08:12:34;;;;;;;8.05;3.13;;;24.40;99.90;;;;;;5094353;28;20059;-72
2022/03/04 08:15:02;;;;;;;11.52;3.67;;;24.40;99.90;;;;;;5094284;28;20024;-72
2022/03/04 08:17:30;;;;;;;15.55;3.33;;;24.40;99.90;;;;;;5094610;28;20024;-72
2022/03/04 08:19:57;;;;;;;11.20;4.18;;;24.30;99.90;;;;;;5094717;28;20024;-72
2022/03/04 08:22:24;;;;;;;10.32;3.83;;;24.30;99.90;;;;;;5094829;28;20028;-72
2022/03/04 08:24:52;;;;;;;14.20;4.00;;;24.20;99.90;;;;;;5094594;28;20016;-71
2022/03/04 08:27:19;;;;;;;16.38;5.03;;;24.20;99.90;;;;;;5094490;28;20036;-70
2022/03/04 08:29:47;;;;;;;13.05;4.57;;;24.10;99.90;;;;;;5094175;28;20040;-71
2022/03/04 08:32:14;;;;;;;15.93;6.32;;;24.20;99.90;;;;;;5076729;28;20434;-71
2022/03/04 08:34:41;;;;;;;18.23;7.28;;;24.10;99.90;;;;;;5094526;28;20085;-72
2022/03/04 08:37:09;;;;;;;19.65;6.65;;;24.10;99.90;;;;;;5094400;28;20035;-71
2022/03/04 08:39:36;;;;;;;19.35;7.45;;;24.10;99.90;;;;;;5075735;28;20028;-72
2022/03/04 08:42:04;;;;;;;17.05;6.07;;;24.10;99.90;;;;;;5093338;28;20024;-72
2022/03/04 08:44:31;;;;;;;17.95;7.13;;;24.00;99.90;;;;;;5093812;28;20050;-70
2022/03/04 08:46:58;;;;;;;18.92;8.82;;;24.00;99.90;;;;;;5093620;28;20550;-72
2022/03/04 08:49:25;;;;;;;19.60;8.05;;;24.00;99.90;;;;;;5094025;28;20085;-73
2022/03/04 08:51:53;;;;;;;18.55;8.77;;;24.00;99.90;;;;;;5094221;28;20016;-72
2022/03/04 08:54:20;;;;;;;15.98;7.35;;;24.00;99.90;;;;;;5093921;28;20024;-71
2022/03/04 08:56:47;;;;;;;17.23;7.22;;;23.90;99.90;;;;;;5093582;28;20536;-73
2022/03/04 08:59:15;;;;;;;17.45;6.95;;;23.90;99.90;;;;;;5094093;28;20031;-73
2022/03/04 09:01:42;;;;;;;12.68;6.28;;;23.90;99.90;;;;;;5094376;28;20376;-72
2022/03/04 09:04:13;;;;;;;13.85;6.30;;;23.90;99.90;;;;;;5094091;28;20016;-72
2022/03/04 09:06:41;;;;;;;11.90;4.75;;;23.80;99.90;;;;;;5075754;28;20035;-72
2022/03/04 09:09:10;;;;;;;10.98;4.50;;;23.80;99.90;;;;;;5093704;28;20024;-74
2022/03/04 09:11:37;;;;;;;12.95;6.38;;;23.80;99.90;;;;;;5093718;28;20028;-74
2022/03/04 09:14:05;;;;;;;16.42;8.05;;;23.70;99.90;;;;;;5094241;28;20024;-73
2022/03/04 09:16:32;;;;;;;15.13;7.43;;;23.80;99.90;;;;;;5093636;28;20028;-73
2022/03/04 09:18:59;;;;;;;15.23;6.30;;;23.80;99.90;;;;;;5093749;28;20100;-73
2022/03/04 09:21:27;;;;;;;14.57;5.38;;;23.70;99.90;;;;;;5093644;28;20016;-75
2022/03/04 09:23:55;;;;;;;9.40;4.25;;;23.70;99.90;;;;;;5093549;28;20020;-75
2022/03/04 09:26:22;;;;;;;14.13;5.53;;;23.70;99.90;;;;;;5093434;28;20034;-73
2022/03/04 09:28:49;;;;;;;14.27;4.70;;;23.70;99.90;;;;;;5093094;28;20031;-75
2022/03/04 09:31:17;;;;;;;12.65;6.60;;;23.70;99.90;;;;;;5093474;28;20533;-76
2022/03/04 09:33:44;;;;;;;9.48;4.47;;;23.70;99.90;;;;;;5093085;28;20116;-76
2022/03/04 09:36:13;;;;;;;7.30;3.47;;;23.70;99.90;;;;;;5092603;28;20504;-75
2022/03/04 09:38:41;;;;;;;7.22;2.92;;;23.70;99.90;;;;;;5092842;28;20032;-73
2022/03/04 09:41:09;;;;;;;11.30;3.83;;;23.70;99.90;;;;;;5093176;28;20097;-75
2022/03/04 09:43:38;;;;;;;8.50;2.65;;;23.60;99.90;;;;;;5093221;28;20024;-75
2022/03/04 09:46:05;;;;;;;8.07;4.32;;;23.60;99.90;;;;;;5075171;28;20069;-77
2022/03/04 09:48:39;;;;;;;11.15;5.10;;;23.60;99.90;;;;;;5093164;28;20037;-77
2022/03/04 09:51:08;;;;;;;13.05;5.13;;;23.60;99.90;;;;;;5092865;28;20032;-74
2022/03/04 09:53:36;;;;;;;9.77;3.92;;;23.60;99.90;;;;;;5091772;28;20052;-76
2022/03/04 09:56:04;;;;;;;9.30;3.28;;;23.60;99.90;;;;;;5092551;28;20032;-77
2022/03/04 09:58:37;;;;;;;9.93;2.78;;;23.60;99.90;;;;;;5092867;28;20076;-79
2022/03/04 10:01:10;;;;;;;7.03;1.90;;;23.60;99.90;;;;;;5074466;28;20114;-77
2022/03/04 10:03:45;;;;;;;5.78;1.88;;;23.60;99.90;;;;;;5092459;28;20044;-76
2022/03/04 10:06:13;;;;;;;8.00;2.53;;;23.50;99.90;;;;;;5092999;28;20511;-77
2022/03/04 10:08:53;;;;;;;12.35;3.35;;;23.50;99.90;;;;;;5092510;28;20020;-76
2022/03/04 10:11:33;;;;;;;10.20;3.47;;;23.50;99.90;;;;;;5092208;28;20387;-77
2022/03/04 10:14:03;;;;;;;9.60;2.72;;;23.50;99.90;;;;;;5092584;28;20021;-76
2022/03/04 10:16:33;;;;;;;11.55;2.53;;;23.40;99.90;;;;;;5092913;28;20027;-76
2022/03/04 10:19:07;;;;;;;7.25;2.30;;;23.40;99.90;;;;;;5092888;28;20417;-76
2022/03/04 10:21:59;;;;;;;9.77;2.53;;;23.40;99.90;;;;;;5092686;28;20491;-77
2022/03/04 10:24:32;;;;;;;10.73;3.77;;;23.30;99.90;;;;;;5092038;28;20035;-77
2022/03/04 10:27:10;;;;;;;10.00;1.85;;;23.30;99.90;;;;;;5091847;28;20352;-75
2022/03/04 10:29:48;;;;;;;9.20;2.13;;;23.30;99.90;;;;;;5092100;28;20016;-76
2022/03/04 10:32:22;;;;;;;12.40;2.50;;;23.30;99.90;;;;;;5092199;28;20027;-75
2022/03/04 10:35:04;;;;;;;9.93;3.33;;;23.30;99.90;;;;;;5091916;28;20500;-78
2022/03/04 10:37:44;;;;;;;15.85;2.58;;;23.30;99.90;;;;;;5092251;28;20123;-73
2022/03/04 10:40:15;;;;;;;11.15;2.83;;;23.30;99.90;;;;;;5092213;28;20016;-77
2022/03/04 10:42:49;;;;;;;12.50;2.95;;;23.30;99.90;;;;;;5092053;28;20426;-77
2022/03/04 10:45:21;;;;;;;7.60;2.08;;;23.20;99.90;;;;;;5091856;28;20411;-76
2022/03/04 10:48:02;;;;;;;9.35;1.83;;;23.30;99.90;;;;;;5092084;28;20472;-76
2022/03/04 10:50:48;;;;;;;10.40;2.63;;;23.30;99.90;;;;;;5092367;28;20035;-77
2022/03/04 10:53:21;;;;;;;12.68;2.85;;;23.30;99.90;;;;;;5092162;28;20103;-74
2022/03/04 10:55:49;;;;;;;14.60;3.03;;;23.30;99.90;;;;;;5091896;28;20032;-75
2022/03/04 10:58:20;;;;;;;8.77;2.47;;;23.30;99.90;;;;;;5092092;28;20024;-75
2022/03/04 11:00:51;;;;;;;8.02;2.35;;;23.30;99.90;;;;;;5092059;28;20028;-74
2022/03/04 11:03:24;;;;;;;7.28;2.22;;;23.30;99.90;;;;;;5091948;28;20017;-75
2022/03/04 11:05:54;;;;;;;10.98;2.60;;;23.30;99.90;;;;;;5095836;28;20028;-76
2022/03/04 11:08:21;;;;;;;10.18;2.90;;;23.30;99.90;;;;;;5096077;28;20548;-76
2022/03/04 11:10:50;;;;;;;10.88;2.03;;;23.30;99.90;;;;;;5095847;28;20027;-75
2022/03/04 11:13:18;;;;;;;9.93;2.05;;;23.30;99.90;;;;;;5096110;28;20052;-77
2022/03/04 11:15:47;;;;;;;8.90;2.72;;;23.30;99.90;;;;;;5095829;28;20089;-76
2022/03/04 11:18:17;;;;;;;8.88;2.20;;;23.30;99.90;;;;;;5095898;28;20034;-75
2022/03/04 11:20:47;;;;;;;11.32;2.90;;;23.30;99.90;;;;;;5095887;28;20461;-75
2022/03/04 11:23:37;;;;;;;12.63;2.58;;;23.30;99.90;;;;;;5095920;28;20065;-76
2022/03/04 11:26:08;;;;;;;14.60;2.67;;;23.30;99.90;;;;;;5096100;28;20020;-76
2022/03/04 11:28:42;;;;;;;11.65;2.80;;;23.30;99.90;;;;;;5090804;28;20054;-76
2022/03/04 11:31:12;;;;;;;12.88;2.90;;;23.30;99.90;;;;;;5094606;28;20492;-72
2022/03/04 11:34:02;;;;;;;10.02;2.67;;;23.20;99.90;;;;;;5094913;28;20385;-70
2022/03/04 11:36:32;;;;;;;13.63;2.58;;;23.20;99.90;;;;;;5094813;28;20101;-74
2022/03/04 11:39:02;;;;;;;10.93;2.75;;;23.20;99.90;;;;;;5094655;28;20023;-71
2022/03/04 11:41:30;;;;;;;14.40;2.75;;;23.20;99.90;;;;;;5094676;28;20069;-72
2022/03/04 11:44:22;;;;;;;12.07;2.80;;;23.20;99.90;;;;;;5094641;28;20024;-72
2022/03/04 11:46:58;;;;;;;9.50;2.80;;;23.30;99.90;;;;;;5094757;28;20039;-72
2022/03/04 11:49:26;;;;;;;13.43;3.10;;;23.20;99.90;;;;;;5095126;28;20345;-73
2022/03/04 11:52:12;;;;;;;9.13;2.60;;;23.20;99.90;;;;;;5095099;28;20054;-72
2022/03/04 11:55:10;;;;;;;13.20;2.70;;;23.20;99.90;;;;;;5076264;28;20414;-73
2022/03/04 11:57:45;;;;;;;10.27;2.63;;;23.20;99.90;;;;;;5094401;28;20056;-74
2022/03/04 12:00:12;;;;;;;7.93;2.38;;;23.20;99.90;;;;;;5094447;28;20017;-75
2022/03/04 12:02:51;;;;;;;14.85;3.80;;;23.20;99.90;;;;;;5095134;28;20024;-74
2022/03/04 12:05:27;;;;;;;13.85;2.97;;;23.20;99.90;;;;;;5094573;28;20035;-76
2022/03/04 12:07:58;;;;;;;11.18;3.22;;;23.20;99.90;;;;;;5094477;28;20051;-75
2022/03/04 12:10:27;;;;;;;14.38;3.58;;;23.20;99.90;;;;;;5094712;28;20109;-73
2022/03/04 12:12:57;;;;;;;11.10;2.63;;;23.20;99.90;;;;;;5094869;28;20095;-75
2022/03/04 12:15:25;;;;;;;11.35;3.72;;;23.20;99.90;;;;;;5093382;28;20020;-74
2022/03/04 12:18:05;;;;;;;12.60;2.65;;;23.20;99.90;;;;;;5094196;28;20032;-73
2022/03/04 12:20:44;;;;;;;11.70;3.90;;;23.20;99.90;;;;;;5094953;28;20107;-75
2022/03/04 12:23:14;;;;;;;13.48;3.40;;;23.20;99.90;;;;;;5094788;28;20016;-72
2022/03/04 12:25:58;;;;;;;10.73;3.83;;;23.20;99.90;;;;;;5094516;28;20468;-73
2022/03/04 12:28:27;;;;;;;17.90;4.45;;;23.20;99.90;;;;;;5094418;28;20032;-75
2022/03/04 12:31:04;;;;;;;12.73;4.00;;;23.20;99.90;;;;;;5094837;28;20028;-75
2022/03/04 12:34:00;;;;;;;14.60;4.28;;;23.20;99.90;;;;;;5094660;28;20024;-75
2022/03/04 12:36:29;;;;;;;14.90;4.60;;;23.20;99.90;;;;;;5041115;28;20521;-75
2022/03/04 12:38:59;;;;;;;11.57;4.68;;;23.20;99.90;;;;;;5053658;28;20036;-75
2022/03/04 12:41:33;;;;;;;20.38;5.32;;;23.20;99.90;;;;;;5053617;28;20064;-73
2022/03/04 12:44:09;;;;;;;11.48;3.88;;;23.20;99.90;;;;;;5053674;28;20033;-73
2022/03/04 12:46:41;;;;;;;12.38;4.13;;;23.20;99.90;;;;;;5053718;28;20496;-75
2022/03/04 12:49:09;;;;;;;12.23;4.00;;;23.20;99.90;;;;;;5052495;28;20021;-75
2022/03/04 12:51:39;;;;;;;10.98;4.00;;;23.10;99.90;;;;;;5053942;28;20029;-76
2022/03/04 12:54:18;;;;;;;9.38;4.53;;;23.10;99.90;;;;;;5053625;28;20017;-71
2022/03/04 12:56:56;;;;;;;11.55;3.88;;;23.00;99.90;;;;;;5053366;28;20082;-72
2022/03/04 12:59:26;;;;;;;13.77;4.65;;;23.00;99.90;;;;;;5053506;28;20063;-74